Time;durP1;ratioP1;P1;durP2;ratioP2;P2;SDS_P1;SDS_P2;PMS_P1;PMS_P2;Temp;Humidity;BMP_temperature;BMP_pressure;BME280_temperature;BME280_humidity;BME280_pressure;Samples;Min_cycle;Max_cycle;Signal;HPM_P1;HPM_P2
2021/06/22 00:00:42;;;;;;;7.77;7.27;;;14.80;77.20;;;;;;5134595;27;20200;-93
2021/06/22 00:03:07;;;;;;;7.87;7.10;;;15.20;78.10;;;;;;5133821;27;20635;-92
2021/06/22 00:05:34;;;;;;;8.10;7.53;;;14.70;77.10;;;;;;5133520;27;20470;-93
2021/06/22 00:07:59;;;;;;;7.30;6.60;;;14.80;76.40;;;;;;5133857;27;20175;-92
2021/06/22 00:10:28;;;;;;;7.40;7.00;;;14.70;76.40;;;;;;5134867;27;20501;-92
2021/06/22 00:12:55;;;;;;;8.30;6.20;;;14.90;75.90;;;;;;5134076;27;20181;-92
2021/06/22 00:15:23;;;;;;;7.23;6.73;;;15.00;75.80;;;;;;5140680;27;20410;-92
2021/06/22 00:17:51;;;;;;;5.33;5.13;;;16.40;78.30;;;;;;5145808;27;20410;-93
2021/06/22 00:20:21;;;;;;;5.93;5.43;;;15.10;75.50;;;;;;5151346;27;20470;-92
2021/06/22 00:22:48;;;;;;;5.83;5.33;;;15.20;73.40;;;;;;5157099;27;20445;-92
2021/06/22 00:25:16;;;;;;;5.60;5.40;;;14.90;73.10;;;;;;5149533;27;20422;-93
2021/06/22 00:27:43;;;;;;;8.23;7.47;;;15.10;73.40;;;;;;5135271;27;20450;-93
2021/06/22 00:30:13;;;;;;;5.50;5.10;;;15.30;95.10;;;;;;5134004;27;20509;-93
2021/06/22 00:32:39;;;;;;;5.53;5.33;;;15.40;75.00;;;;;;5134894;27;20466;-92
2021/06/22 00:35:05;;;;;;;5.67;5.20;;;14.70;71.50;;;;;;5134475;27;20398;-93
2021/06/22 00:37:31;;;;;;;5.87;5.47;;;15.30;71.20;;;;;;5132924;27;20226;-93
2021/06/22 00:39:57;;;;;;;4.47;4.07;;;15.10;91.60;;;;;;5134390;27;20428;-93
2021/06/22 00:42:23;;;;;;;4.93;4.47;;;14.60;73.40;;;;;;5134524;28;20473;-93
2021/06/22 00:44:52;;;;;;;5.73;5.20;;;14.90;70.00;;;;;;5133034;28;20267;-93
2021/06/22 00:47:21;;;;;;;4.03;3.83;;;14.80;69.20;;;;;;5133155;28;20228;-92
2021/06/22 00:49:49;;;;;;;4.70;4.40;;;14.70;70.70;;;;;;5133122;28;20414;-94
2021/06/22 00:52:16;;;;;;;4.20;3.90;;;14.80;69.30;;;;;;5133294;28;20786;-92
2021/06/22 00:54:41;;;;;;;4.40;4.40;;;15.30;94.00;;;;;;5133470;28;20422;-91
2021/06/22 00:57:09;;;;;;;4.80;4.60;;;14.50;72.80;;;;;;5136171;28;20417;-91
2021/06/22 00:59:35;;;;;;;4.03;3.90;;;14.50;70.10;;;;;;5139095;28;20164;-92
2021/06/22 01:02:05;;;;;;;4.20;3.90;;;13.70;68.70;;;;;;5139134;28;20464;-91
2021/06/22 01:04:31;;;;;;;3.47;3.30;;;15.40;67.50;;;;;;5136551;28;20398;-94
2021/06/22 01:06:59;;;;;;;3.30;3.20;;;15.10;73.50;;;;;;5134544;28;20410;-93
2021/06/22 01:09:25;;;;;;;3.40;3.30;;;15.20;94.60;;;;;;5133012;28;20803;-92
2021/06/22 01:11:54;;;;;;;4.33;4.03;;;15.10;73.10;;;;;;5134539;28;20429;-92
2021/06/22 01:14:19;;;;;;;3.90;3.70;;;13.60;69.60;;;;;;5133119;28;20474;-92
2021/06/22 01:16:45;;;;;;;4.10;3.73;;;15.00;70.20;;;;;;5134396;28;20399;-92
2021/06/22 01:19:11;;;;;;;3.83;3.53;;;;;;;;;;5133003;28;20539;-93
2021/06/22 01:21:38;;;;;;;3.13;3.03;;;15.00;73.10;;;;;;5132944;28;20201;-93
2021/06/22 01:24:22;;;;;;;3.70;3.43;;;13.70;72.30;;;;;;5132987;28;20498;-93
2021/06/22 01:26:48;;;;;;;3.80;3.50;;;;;;;;;;5132804;28;20434;-93
2021/06/22 01:29:14;;;;;;;4.70;3.63;;;;;;;;;;5133387;28;20429;-92
2021/06/22 01:31:41;;;;;;;3.70;3.40;;;15.10;72.30;;;;;;5132725;28;20425;-92
2021/06/22 01:34:07;;;;;;;4.13;3.87;;;14.50;72.60;;;;;;5133428;28;20917;-91
2021/06/22 01:36:35;;;;;;;4.07;3.80;;;;;;;;;;5133129;28;20466;-91
2021/06/22 01:39:01;;;;;;;4.57;4.37;;;;;;;;;;5134943;28;20414;-92
2021/06/22 01:41:27;;;;;;;4.47;4.00;;;;;;;;;;5137357;28;20506;-91
2021/06/22 01:43:59;;;;;;;4.10;3.90;;;;;;;;;;5137186;28;20414;-91
2021/06/22 01:46:25;;;;;;;7.57;4.77;;;;;;;;;;5140248;28;20418;-91
2021/06/22 01:48:51;;;;;;;5.80;5.03;;;;;;;;;;5138070;27;20418;-93
2021/06/22 01:51:18;;;;;;;4.50;4.30;;;15.10;73.30;;;;;;5136912;27;20448;-93
2021/06/22 01:53:50;;;;;;;4.17;3.87;;;14.90;73.60;;;;;;5137411;27;20414;-91
2021/06/22 01:56:16;;;;;;;6.33;4.20;;;14.50;74.80;;;;;;5136361;27;20532;-91
2021/06/22 01:58:42;;;;;;;5.10;4.53;;;14.90;94.00;;;;;;5137433;27;20426;-92
2021/06/22 02:01:07;;;;;;;4.87;4.00;;;14.80;97.20;;;;;;5136063;27;20203;-92
2021/06/22 02:03:33;;;;;;;4.40;4.20;;;15.30;81.90;;;;;;5137648;27;20160;-93
2021/06/22 02:06:01;;;;;;;5.10;4.60;;;14.30;78.30;;;;;;5137077;27;20557;-91
2021/06/22 02:08:27;;;;;;;4.63;4.30;;;15.00;79.80;;;;;;5135900;27;20555;-92
2021/06/22 02:10:52;;;;;;;4.53;4.23;;;14.10;79.20;;;;;;5137094;27;20453;-92
2021/06/22 02:13:20;;;;;;;4.73;4.40;;;14.20;80.10;;;;;;5135931;27;20184;-93
2021/06/22 02:15:46;;;;;;;5.40;4.50;;;14.00;80.00;;;;;;5135649;27;20169;-92
2021/06/22 02:18:12;;;;;;;4.40;4.10;;;13.70;79.70;;;;;;5135724;27;20407;-92
2021/06/22 02:20:39;;;;;;;4.83;4.63;;;14.30;81.10;;;;;;5136028;27;20812;-92
2021/06/22 02:23:05;;;;;;;5.87;5.30;;;14.10;80.00;;;;;;5136305;27;20172;-92
2021/06/22 02:25:31;;;;;;;4.83;4.43;;;14.30;83.00;;;;;;5135603;27;20982;-92
2021/06/22 02:28:05;;;;;;;4.90;4.47;;;13.70;80.80;;;;;;5136002;27;20419;-92
2021/06/22 02:30:31;;;;;;;4.57;4.30;;;14.50;78.20;;;;;;5135566;27;20168;-92
2021/06/22 02:32:58;;;;;;;4.50;4.17;;;13.40;80.40;;;;;;5137398;27;20459;-90
2021/06/22 02:35:24;;;;;;;4.27;3.87;;;13.80;81.50;;;;;;5136070;27;20410;-92
2021/06/22 02:37:51;;;;;;;5.43;4.60;;;13.80;83.00;;;;;;5135895;27;20421;-92
2021/06/22 02:40:19;;;;;;;6.10;4.87;;;13.90;82.80;;;;;;5136150;27;20473;-91
2021/06/22 02:42:46;;;;;;;4.67;4.40;;;14.00;85.60;;;;;;5135541;27;20773;-93
2021/06/22 02:45:12;;;;;;;4.40;4.00;;;13.50;81.60;;;;;;5135701;27;20417;-92
2021/06/22 02:47:38;;;;;;;4.73;4.30;;;14.40;81.70;;;;;;5136880;27;20970;-91
2021/06/22 02:50:05;;;;;;;5.13;4.50;;;16.10;86.30;;;;;;5136483;27;20406;-92
2021/06/22 02:52:30;;;;;;;5.30;4.03;;;14.50;83.10;;;;;;5136370;27;20627;-93
2021/06/22 02:54:56;;;;;;;4.63;3.80;;;14.20;83.30;;;;;;5136108;27;20425;-91
2021/06/22 02:57:21;;;;;;;5.47;4.70;;;14.20;84.10;;;;;;5135910;27;20164;-91
2021/06/22 02:59:47;;;;;;;5.67;4.83;;;13.70;83.40;;;;;;5135228;27;20176;-92
2021/06/22 03:02:13;;;;;;;8.03;4.87;;;13.70;84.30;;;;;;5136767;27;20208;-92
2021/06/22 03:04:38;;;;;;;4.80;4.40;;;13.90;85.50;;;;;;5135290;27;20176;-91
2021/06/22 03:07:04;;;;;;;5.27;4.80;;;13.00;84.80;;;;;;5135542;27;20169;-94
2021/06/22 03:09:30;;;;;;;5.90;5.00;;;15.10;87.50;;;;;;5135681;27;20175;-92
2021/06/22 03:11:56;;;;;;;4.77;4.37;;;13.70;86.00;;;;;;5136093;27;20169;-93
2021/06/22 03:14:22;;;;;;;7.33;5.73;;;13.70;86.70;;;;;;5135782;27;20511;-91
2021/06/22 03:16:48;;;;;;;8.63;5.50;;;13.30;85.30;;;;;;5135865;27;20534;-91
2021/06/22 03:19:14;;;;;;;5.80;5.23;;;15.70;91.20;;;;;;5136209;27;20512;-93
2021/06/22 03:21:43;;;;;;;11.47;6.07;;;13.30;86.50;;;;;;5135261;27;20495;-92
2021/06/22 03:24:13;;;;;;;6.97;5.50;;;13.60;87.10;;;;;;5135842;27;20171;-92
2021/06/22 03:26:39;;;;;;;7.07;5.17;;;14.10;83.90;;;;;;5136913;27;20486;-92
2021/06/22 03:29:05;;;;;;;6.53;5.57;;;15.10;90.30;;;;;;5135955;27;20837;-94
2021/06/22 03:31:31;;;;;;;9.43;5.90;;;13.70;88.20;;;;;;5135652;27;20251;-93
2021/06/22 03:33:57;;;;;;;7.57;6.27;;;12.70;85.80;;;;;;5136454;27;20164;-92
2021/06/22 03:36:23;;;;;;;6.47;5.63;;;13.40;87.10;;;;;;5135478;27;20409;-93
2021/06/22 03:38:48;;;;;;;11.97;8.40;;;13.70;88.40;;;;;;5136898;27;20169;-93
2021/06/22 03:41:14;;;;;;;6.83;5.30;;;13.30;87.90;;;;;;5135054;27;20259;-92
2021/06/22 03:43:39;;;;;;;8.80;6.07;;;13.60;88.20;;;;;;5134375;27;20165;-92
2021/06/22 03:46:08;;;;;;;10.43;5.83;;;14.40;90.00;;;;;;5136267;27;20172;-92
2021/06/22 03:48:34;;;;;;;7.50;5.80;;;13.20;88.70;;;;;;5135676;27;20161;-92
2021/06/22 03:51:00;;;;;;;5.57;5.07;;;14.00;99.90;;;;;;5136249;27;20495;-92
2021/06/22 03:53:26;;;;;;;6.40;4.93;;;13.60;90.80;;;;;;5136584;27;20418;-91
2021/06/22 03:55:51;;;;;;;9.53;6.00;;;13.30;88.70;;;;;;5136391;27;20406;-92
2021/06/22 03:58:17;;;;;;;4.87;4.57;;;13.00;89.20;;;;;;5134675;27;20410;-93
2021/06/22 04:00:42;;;;;;;7.00;5.27;;;13.90;89.20;;;;;;5138009;27;20205;-93
2021/06/22 04:03:13;;;;;;;6.83;4.90;;;14.10;90.80;;;;;;5147327;27;20191;-93
2021/06/22 04:05:39;;;;;;;10.20;5.03;;;13.30;86.70;;;;;;5152268;27;20169;-92
2021/06/22 04:08:05;;;;;;;7.67;5.37;;;14.10;90.30;;;;;;5156873;27;20421;-92
2021/06/22 04:10:31;;;;;;;10.87;6.10;;;;;;;;;;5153476;27;20407;-93
2021/06/22 04:13:00;;;;;;;9.57;6.03;;;14.00;88.20;;;;;;5139651;27;20951;-92
2021/06/22 04:15:26;;;;;;;6.47;5.97;;;14.00;91.00;;;;;;5137393;27;20413;-92
2021/06/22 04:17:52;;;;;;;10.27;6.10;;;;;;;;;;5137592;27;20410;-92
2021/06/22 04:20:18;;;;;;;8.17;5.80;;;;;;;;;;5136994;27;20412;-90
2021/06/22 04:22:44;;;;;;;9.40;6.60;;;14.20;90.00;;;;;;5135235;27;20853;-93
2021/06/22 04:25:10;;;;;;;13.23;6.47;;;14.20;99.90;;;;;;5135574;27;20441;-92
2021/06/22 04:27:36;;;;;;;11.43;6.13;;;14.20;90.30;;;;;;5136183;27;20422;-90
2021/06/22 04:30:04;;;;;;;8.93;6.43;;;14.10;90.30;;;;;;5136555;27;20497;-92
2021/06/22 04:32:30;;;;;;;7.90;6.97;;;;;;;;;;5137593;27;20932;-93
2021/06/22 04:34:56;;;;;;;10.37;7.37;;;;;;;;;;5136232;27;20405;-92
2021/06/22 04:37:22;;;;;;;8.70;6.90;;;;;;;;;;5137302;27;20498;-93
2021/06/22 04:39:48;;;;;;;6.90;6.50;;;14.50;87.60;;;;;;5136286;27;20406;-92
2021/06/22 04:42:14;;;;;;;7.70;6.90;;;;;;;;;;5135793;27;20774;-93
2021/06/22 04:44:43;;;;;;;9.43;6.07;;;14.30;86.20;;;;;;5136579;28;20414;-93
2021/06/22 04:47:09;;;;;;;15.00;8.13;;;;;;;;;;5135428;28;20417;-92
2021/06/22 04:49:36;;;;;;;10.07;6.80;;;;;;;;;;5139189;28;20399;-92
2021/06/22 04:52:22;;;;;;;9.07;6.20;;;;;;;;;;5136668;28;20418;-93
2021/06/22 04:54:48;;;;;;;7.73;7.10;;;14.40;85.60;;;;;;4777938;28;10000223;-93
2021/06/22 04:57:18;;;;;;;8.67;7.30;;;;;;;;;;5135939;28;20186;-93
2021/06/22 04:59:44;;;;;;;11.20;7.00;;;;;;;;;;5135564;28;20173;-93
2021/06/22 05:02:10;;;;;;;7.73;6.93;;;;;;;;;;5132821;28;20466;-92
2021/06/22 05:04:37;;;;;;;8.17;7.10;;;;;;;;;;5135386;28;20798;-93
2021/06/22 05:07:06;;;;;;;7.73;7.03;;;14.20;85.80;;;;;;5139982;28;20833;-92
2021/06/22 05:09:32;;;;;;;8.07;7.33;;;;;;;;;;5136471;28;20493;-92
2021/06/22 05:11:58;;;;;;;10.80;8.17;;;;;;;;;;5138411;28;20446;-92
2021/06/22 05:14:24;;;;;;;9.47;6.53;;;;;;;;;;5136341;28;20406;-91
2021/06/22 05:16:50;;;;;;;10.80;7.73;;;;;;;;;;5135948;28;20434;-93
2021/06/22 05:19:16;;;;;;;11.83;7.27;;;15.00;99.80;;;;;;5138242;28;20405;-92
2021/06/22 05:21:42;;;;;;;12.10;7.50;;;;;;;;;;5139042;27;20465;-90
2021/06/22 05:24:12;;;;;;;9.63;7.70;;;14.90;82.90;;;;;;5145590;27;20399;-92
2021/06/22 05:26:42;;;;;;;19.23;8.90;;;14.90;86.10;;;;;;5148553;27;20422;-90
2021/06/22 05:29:10;;;;;;;11.47;7.50;;;14.90;87.70;;;;;;5151705;27;20409;-87
2021/06/22 05:31:35;;;;;;;6.57;5.73;;;15.00;85.40;;;;;;5151962;27;20418;-91
2021/06/22 05:34:02;;;;;;;7.23;6.63;;;;;;;;;;5155626;27;21038;-89
2021/06/22 05:36:28;;;;;;;10.23;8.80;;;;;;;;;;5140578;27;20183;-90
2021/06/22 05:39:05;;;;;;;10.83;6.97;;;15.60;98.10;;;;;;5155505;27;20893;-88
2021/06/22 05:41:34;;;;;;;7.27;6.77;;;15.60;78.50;;;;;;5135585;27;20477;-88
2021/06/22 05:44:00;;;;;;;7.03;6.33;;;;;;;;;;5153099;27;20399;-91
2021/06/22 05:46:29;;;;;;;31.83;10.80;;;16.30;75.20;;;;;;5148646;27;20406;-90
2021/06/22 05:48:55;;;;;;;22.97;11.20;;;;;;;;;;5146326;27;20435;-89
2021/06/22 05:51:22;;;;;;;15.37;10.00;;;16.10;74.30;;;;;;5150928;27;20394;-92
2021/06/22 05:53:53;;;;;;;10.87;6.87;;;16.30;95.20;;;;;;5149746;27;20410;-91
2021/06/22 05:56:23;;;;;;;7.30;6.20;;;;;;;;;;5153183;27;20450;-90
2021/06/22 05:58:58;;;;;;;8.57;7.10;;;16.50;71.30;;;;;;5153610;27;20426;-92
2021/06/22 06:01:29;;;;;;;8.03;6.80;;;;;;;;;;5136431;27;20473;-92
2021/06/22 06:03:55;;;;;;;6.73;6.17;;;16.40;72.50;;;;;;5138713;27;20423;-90
2021/06/22 06:06:25;;;;;;;8.50;7.70;;;16.00;72.40;;;;;;5145531;27;20512;-92
2021/06/22 06:08:54;;;;;;;11.00;7.20;;;16.20;73.90;;;;;;5145161;27;20161;-92
2021/06/22 06:11:22;;;;;;;12.77;7.40;;;;;;;;;;5125039;28;20407;-90
2021/06/22 06:13:48;;;;;;;10.30;7.33;;;;;;;;;;5129157;28;20452;-92
2021/06/22 06:16:14;;;;;;;7.30;6.60;;;;;;;;;;5126028;28;20465;-92
2021/06/22 06:18:40;;;;;;;7.30;6.60;;;;;;;;;;5126882;28;20469;-91
2021/06/22 06:21:12;;;;;;;6.43;5.97;;;;;;;;;;5130028;28;20509;-92
2021/06/22 06:23:46;;;;;;;10.30;6.73;;;16.40;93.80;;;;;;5131910;28;20407;-89
2021/06/22 06:26:14;;;;;;;6.53;5.90;;;16.40;73.10;;;;;;5130073;28;20433;-89
2021/06/22 06:28:47;;;;;;;6.27;5.47;;;15.30;67.60;;;;;;5131891;28;20403;-91
2021/06/22 06:31:14;;;;;;;6.87;6.20;;;;;;;;;;5093158;28;20418;-92
2021/06/22 06:33:52;;;;;;;7.28;5.32;;;;;;;;;;5107569;27;10001184;-93
2021/06/22 06:36:21;;;;;;;13.73;6.13;;;;;;;;;;5148316;27;20417;-92
2021/06/22 06:38:51;;;;;;;7.07;6.43;;;16.40;68.50;;;;;;5148494;27;20506;-93
2021/06/22 06:41:17;;;;;;;14.13;8.33;;;;;;;;;;5146143;27;20474;-93
2021/06/22 06:43:43;;;;;;;8.53;7.17;;;;;;;;;;5146446;27;20442;-92
2021/06/22 06:46:10;;;;;;;10.27;7.63;;;15.80;66.30;;;;;;5144898;27;20410;-91
2021/06/22 06:48:41;;;;;;;8.90;6.10;;;18.00;66.80;;;;;;5127740;27;20510;-91
2021/06/22 06:51:07;;;;;;;6.83;6.20;;;16.40;93.10;;;;;;5144252;27;20429;-93
2021/06/22 06:53:33;;;;;;;7.90;6.63;;;;;;;;;;5146148;27;20453;-90
2021/06/22 06:55:59;;;;;;;12.43;7.30;;;;;;;;;;5145294;27;20224;-91
2021/06/22 06:58:28;;;;;;;12.90;10.93;;;16.90;67.20;;;;;;5143021;27;20403;-92
2021/06/22 07:00:59;;;;;;;9.67;8.60;;;16.50;67.90;;;;;;5128251;28;20454;-91
2021/06/22 07:03:37;;;;;;;12.97;9.40;;;16.50;67.80;;;;;;5130628;28;20449;-91
2021/06/22 07:06:05;;;;;;;12.83;11.60;;;16.40;66.60;;;;;;5149918;27;20406;-90
2021/06/22 07:08:33;;;;;;;11.40;9.90;;;16.40;68.70;;;;;;5150319;27;20414;-89
2021/06/22 07:11:02;;;;;;;11.50;10.37;;;16.50;67.40;;;;;;5151660;27;20418;-91
2021/06/22 07:13:27;;;;;;;11.30;10.20;;;16.50;67.20;;;;;;5151795;27;20418;-91
2021/06/22 07:15:54;;;;;;;10.43;9.43;;;16.50;67.00;;;;;;5134944;27;20483;-91
2021/06/22 07:18:22;;;;;;;11.30;10.20;;;16.40;66.40;;;;;;5133129;27;20243;-92
2021/06/22 07:20:48;;;;;;;11.57;8.97;;;;;;;;;;5150797;27;20472;-91
2021/06/22 07:23:22;;;;;;;9.63;8.47;;;13.80;61.60;;;;;;5152153;27;20411;-91
2021/06/22 07:25:55;;;;;;;10.00;8.53;;;;;;;;;;5137833;27;20418;-92
2021/06/22 07:28:21;;;;;;;8.60;7.70;;;;;;;;;;5146346;27;20406;-90
2021/06/22 07:30:48;;;;;;;16.00;7.37;;;16.60;62.50;;;;;;5148960;27;20486;-89
2021/06/22 07:33:15;;;;;;;8.30;6.60;;;16.90;64.40;;;;;;5144370;27;20418;-89
2021/06/22 07:35:43;;;;;;;7.43;6.90;;;17.50;65.20;;;;;;5142614;27;20410;-90
2021/06/22 07:38:12;;;;;;;7.63;7.03;;;;;;;;;;5123597;27;20399;-89
2021/06/22 07:40:40;;;;;;;22.87;8.33;;;18.60;59.30;;;;;;5126571;28;20470;-91
2021/06/22 07:43:06;;;;;;;11.30;10.40;;;17.30;64.40;;;;;;5127747;28;20417;-89
2021/06/22 07:45:32;;;;;;;10.27;8.20;;;17.40;63.80;;;;;;5130343;28;20475;-87
2021/06/22 07:47:58;;;;;;;9.77;7.80;;;17.00;62.60;;;;;;4769699;28;9999763;-90
2021/06/22 07:50:24;;;;;;;9.60;7.93;;;17.60;60.00;;;;;;5117643;28;20165;-90
2021/06/22 07:52:51;;;;;;;7.80;7.00;;;;;;;;;;5115692;28;20434;-90
2021/06/22 07:55:19;;;;;;;7.30;6.70;;;18.20;57.50;;;;;;5116965;28;20792;-91
2021/06/22 07:57:47;;;;;;;7.70;7.20;;;18.50;58.50;;;;;;5119008;27;20418;-91
2021/06/22 08:00:21;;;;;;;9.70;7.63;;;18.30;58.90;;;;;;5135603;27;20471;-89
2021/06/22 08:02:47;;;;;;;8.53;7.60;;;;;;;;;;5137747;27;20517;-90
2021/06/22 08:05:13;;;;;;;9.17;8.40;;;;;;;;;;5137946;27;20905;-90
2021/06/22 08:07:39;;;;;;;9.30;8.50;;;;;;;;;;5137862;27;20421;-88
2021/06/22 08:10:05;;;;;;;8.57;7.73;;;;;;;;;;5134156;27;20414;-89
2021/06/22 08:12:31;;;;;;;9.10;8.40;;;17.30;91.00;;;;;;5134842;27;20898;-89
2021/06/22 08:14:57;;;;;;;8.67;7.73;;;;;;;;;;5137849;27;20410;-89
2021/06/22 08:17:22;;;;;;;9.10;8.20;;;17.80;89.40;;;;;;5134751;27;20179;-89
2021/06/22 08:19:48;;;;;;;11.47;8.93;;;;;;;;;;5134724;27;20410;-88
2021/06/22 08:22:14;;;;;;;10.37;9.40;;;;;;;;;;5135953;27;20564;-89
2021/06/22 08:24:40;;;;;;;10.73;8.87;;;17.70;88.70;;;;;;5136344;27;20410;-89
2021/06/22 08:27:06;;;;;;;10.60;8.87;;;17.80;90.30;;;;;;5137557;27;20441;-89
2021/06/22 08:29:31;;;;;;;12.97;9.00;;;17.60;90.20;;;;;;5135715;27;20176;-88
2021/06/22 08:31:57;;;;;;;8.93;8.03;;;17.60;92.00;;;;;;5136156;27;20180;-88
2021/06/22 08:34:22;;;;;;;8.60;7.90;;;17.60;91.90;;;;;;5137587;27;20185;-89
2021/06/22 08:36:48;;;;;;;9.03;7.73;;;17.80;89.50;;;;;;5138508;27;20164;-88
2021/06/22 08:39:14;;;;;;;9.70;8.23;;;;;;;;;;5137170;27;20182;-90
2021/06/22 08:41:41;;;;;;;8.93;8.10;;;;;;;;;;5136191;27;20216;-89
2021/06/22 08:44:09;;;;;;;7.37;6.87;;;17.90;91.20;;;;;;5135806;27;20438;-88
2021/06/22 08:46:35;;;;;;;7.70;7.00;;;17.90;91.20;;;;;;5135474;28;20449;-86
2021/06/22 08:49:03;;;;;;;7.23;6.93;;;;;;;;;;5136699;28;20402;-88
2021/06/22 08:51:29;;;;;;;7.10;6.70;;;18.40;86.70;;;;;;5134730;28;20410;-88
2021/06/22 08:53:58;;;;;;;9.77;9.10;;;18.00;86.40;;;;;;5124921;28;20578;-90
2021/06/22 08:56:25;;;;;;;6.50;6.10;;;18.00;86.70;;;;;;5135079;28;20406;-90
2021/06/22 08:58:51;;;;;;;6.97;6.33;;;18.40;84.20;;;;;;5139623;27;20405;-82
2021/06/22 09:01:17;;;;;;;6.33;5.27;;;18.60;84.50;;;;;;5137105;27;20442;-82
2021/06/22 09:03:43;;;;;;;6.70;5.60;;;19.50;85.70;;;;;;5137421;27;20768;-81
2021/06/22 09:06:08;;;;;;;6.47;5.97;;;18.80;84.60;;;;;;5144540;27;20615;-90
2021/06/22 09:08:34;;;;;;;7.00;6.40;;;19.00;84.60;;;;;;5149072;27;20243;-89
2021/06/22 09:11:13;;;;;;;5.67;5.27;;;18.80;86.20;;;;;;5148811;27;20180;-88
2021/06/22 09:13:42;;;;;;;6.13;4.90;;;18.70;85.00;;;;;;5126769;28;20403;-88
2021/06/22 09:16:15;;;;;;;9.30;6.50;;;18.80;85.10;;;;;;5129468;28;20421;-88
2021/06/22 09:18:44;;;;;;;6.50;6.07;;;18.70;84.70;;;;;;5127534;28;20405;-89
2021/06/22 09:21:15;;;;;;;7.73;6.37;;;18.80;86.50;;;;;;5127223;28;20459;-89
2021/06/22 09:23:43;;;;;;;6.40;6.00;;;18.70;84.70;;;;;;5125404;28;20452;-89
2021/06/22 09:26:10;;;;;;;7.43;6.87;;;18.70;79.50;;;;;;5125464;28;20425;-89
2021/06/22 09:28:39;;;;;;;6.90;6.30;;;18.80;79.50;;;;;;5123529;28;20425;-88
2021/06/22 09:31:07;;;;;;;6.40;6.00;;;18.50;79.70;;;;;;5124114;28;20878;-90
2021/06/22 09:33:41;;;;;;;6.50;5.93;;;18.30;81.30;;;;;;5125260;28;20463;-90
2021/06/22 09:36:20;;;;;;;6.53;6.00;;;18.60;78.90;;;;;;5126483;28;20414;-90
2021/06/22 09:39:05;;;;;;;5.80;5.50;;;18.80;75.60;;;;;;5123230;28;20489;-89
2021/06/22 09:41:43;;;;;;;6.63;5.83;;;19.30;76.50;;;;;;5124216;28;20482;-91
2021/06/22 09:44:16;;;;;;;6.27;5.67;;;18.80;76.60;;;;;;5123697;28;20427;-89
2021/06/22 09:46:51;;;;;;;7.17;6.67;;;19.20;78.90;;;;;;5123407;28;20414;-91
2021/06/22 09:49:19;;;;;;;7.07;6.40;;;18.70;77.50;;;;;;5138400;27;20466;-89
2021/06/22 09:52:04;;;;;;;5.10;4.80;;;18.60;81.90;;;;;;5143838;27;20468;-90
2021/06/22 09:54:31;;;;;;;7.97;5.50;;;18.80;81.30;;;;;;5144908;27;20418;-91
2021/06/22 09:57:12;;;;;;;7.20;5.97;;;18.50;82.80;;;;;;5072709;27;10000885;-90
2021/06/22 09:59:56;;;;;;;9.57;6.03;;;18.80;75.00;;;;;;5124384;28;20370;-90
2021/06/22 10:02:26;;;;;;;6.30;5.43;;;18.40;82.30;;;;;;5120846;28;20466;-88
2021/06/22 10:04:58;;;;;;;16.87;6.50;;;18.50;83.40;;;;;;5125771;28;20420;-87
2021/06/22 10:07:28;;;;;;;5.73;5.43;;;18.70;82.20;;;;;;5126797;28;20419;-90
2021/06/22 10:10:03;;;;;;;6.40;5.80;;;18.80;78.80;;;;;;5125120;28;20446;-89
2021/06/22 10:12:46;;;;;;;5.77;4.97;;;19.10;80.30;;;;;;5126938;28;20419;-90
2021/06/22 10:15:15;;;;;;;5.60;5.20;;;18.70;76.40;;;;;;5128079;28;20407;-89
2021/06/22 10:17:44;;;;;;;8.07;6.37;;;18.60;81.40;;;;;;5125886;28;20909;-90
2021/06/22 10:20:11;;;;;;;6.87;6.17;;;18.60;78.00;;;;;;5128508;28;20407;-92
2021/06/22 10:22:39;;;;;;;7.10;6.50;;;18.70;81.50;;;;;;5132719;28;20466;-91
2021/06/22 10:25:17;;;;;;;11.40;6.73;;;18.80;80.90;;;;;;5132087;28;20474;-90
2021/06/22 10:27:47;;;;;;;7.63;7.07;;;18.70;80.00;;;;;;5131013;28;20532;-89
2021/06/22 10:30:31;;;;;;;11.50;8.00;;;18.80;81.90;;;;;;5111571;28;20419;-88
2021/06/22 10:32:59;;;;;;;10.37;8.13;;;18.40;79.60;;;;;;5125914;28;20427;-88
2021/06/22 10:35:29;;;;;;;6.40;5.80;;;18.20;85.90;;;;;;5125993;28;20423;-90
2021/06/22 10:38:00;;;;;;;7.93;7.10;;;18.30;84.80;;;;;;5124930;28;20464;-89
2021/06/22 10:40:30;;;;;;;20.00;12.43;;;18.80;84.20;;;;;;5125682;28;21253;-89
2021/06/22 10:43:06;;;;;;;9.70;7.70;;;19.00;82.30;;;;;;5128718;28;20415;-90
2021/06/22 10:45:32;;;;;;;12.17;8.47;;;19.20;80.70;;;;;;5125860;28;20936;-88
2021/06/22 10:48:17;;;;;;;5.67;5.37;;;;;;;;;;5128396;28;20420;-91
2021/06/22 10:50:43;;;;;;;8.33;5.30;;;20.50;72.20;;;;;;5129479;28;20181;-91
2021/06/22 10:53:12;;;;;;;6.00;5.70;;;;;;;;;;5127680;28;20423;-91
2021/06/22 10:55:42;;;;;;;7.00;6.50;;;20.60;66.40;;;;;;5124074;28;20474;-93
2021/06/22 10:58:17;;;;;;;29.27;17.30;;;20.30;66.40;;;;;;5128223;28;20471;-90
2021/06/22 11:00:58;;;;;;;35.20;24.90;;;20.30;68.00;;;;;;5113383;28;20549;-90
2021/06/22 11:03:24;;;;;;;10.73;7.70;;;20.40;73.20;;;;;;5132316;28;20437;-88
2021/06/22 11:06:35;;;;;;;7.60;7.10;;;20.30;73.20;;;;;;5130372;28;20411;-92
2021/06/22 11:09:24;;;;;;;9.77;5.90;;;19.50;70.30;;;;;;5092616;27;20715;-91
2021/06/22 11:12:32;;;;;;;6.10;5.40;;;19.50;74.70;;;;;;5131148;28;20414;-93
2021/06/22 11:15:04;;;;;;;6.67;6.00;;;19.70;71.80;;;;;;5133432;28;20422;-89
2021/06/22 11:17:53;;;;;;;10.00;7.60;;;;;;;;;;5130604;28;20415;-92
2021/06/22 11:20:20;;;;;;;7.30;6.73;;;;;;;;;;5126743;28;20478;-93
2021/06/22 11:22:56;;;;;;;6.70;5.40;;;;;;;;;;5123425;28;20423;-92
2021/06/22 11:25:54;;;;;;;8.27;6.33;;;22.00;85.50;;;;;;5130976;28;20428;-90
2021/06/22 11:28:23;;;;;;;8.40;6.67;;;22.90;67.60;;;;;;5035552;28;20443;-93
2021/06/22 11:31:00;;;;;;;6.53;5.90;;;23.10;74.20;;;;;;5123384;28;20415;-91
2021/06/22 11:36:34;;;;;;;6.07;5.43;;;21.70;61.60;;;;;;5124754;28;20430;-92
2021/06/22 11:39:20;;;;;;;7.30;6.77;;;21.30;65.20;;;;;;5122137;28;20403;-91
2021/06/22 11:42:14;;;;;;;5.90;5.40;;;21.10;66.00;;;;;;5120975;28;20593;-94
2021/06/22 11:45:13;;;;;;;8.30;7.70;;;21.00;62.80;;;;;;5120759;28;20846;-92
2021/06/22 11:47:42;;;;;;;6.93;6.43;;;21.30;58.60;;;;;;5121590;28;20411;-92
2021/06/22 11:50:10;;;;;;;8.43;7.87;;;21.00;59.40;;;;;;5120183;28;20411;-92
2021/06/22 11:52:46;;;;;;;8.63;7.93;;;21.20;58.70;;;;;;5122559;28;20463;-91
2021/06/22 11:55:16;;;;;;;11.63;10.17;;;21.50;57.80;;;;;;5117433;28;20445;-92
2021/06/22 11:57:50;;;;;;;14.73;12.70;;;21.20;54.90;;;;;;5120019;28;20408;-91
2021/06/22 12:00:30;;;;;;;;;;;;;;;;;;;;;
2021/06/22 12:02:58;;;;;;;9.97;9.03;;;20.70;78.70;;;;;;5125121;28;20881;-89
2021/06/22 12:05:27;;;;;;;10.00;8.50;;;20.30;72.40;;;;;;5102468;28;20518;-91
2021/06/22 12:07:58;;;;;;;7.30;6.80;;;20.20;71.70;;;;;;5118322;28;20940;-91
2021/06/22 12:10:46;;;;;;;9.43;8.60;;;20.10;72.30;;;;;;5122115;28;20415;-91
2021/06/22 12:13:27;;;;;;;24.20;9.10;;;20.00;80.60;;;;;;5118894;28;20921;-93
2021/06/22 12:15:53;;;;;;;8.33;7.60;;;19.70;83.70;;;;;;5102251;28;20933;-93
2021/06/22 12:18:19;;;;;;;6.23;5.63;;;;;;;;;;5122289;28;20419;-91
2021/06/22 12:20:52;;;;;;;7.27;6.57;;;20.00;74.90;;;;;;5124396;28;20216;-91
2021/06/22 12:23:18;;;;;;;9.03;7.30;;;20.10;70.20;;;;;;5125028;28;20423;-91
2021/06/22 12:25:51;;;;;;;8.20;7.43;;;20.10;74.20;;;;;;5123208;28;20441;-95
2021/06/22 12:28:18;;;;;;;22.43;17.40;;;20.10;74.20;;;;;;5124765;28;20891;-90
2021/06/22 12:31:01;;;;;;;11.47;8.67;;;20.10;76.00;;;;;;5124602;28;20494;-90
2021/06/22 12:33:30;;;;;;;12.70;10.43;;;20.10;71.30;;;;;;5123621;28;20422;-92
2021/06/22 12:36:30;;;;;;;15.57;10.77;;;20.20;74.90;;;;;;5122777;28;20529;-91
2021/06/22 12:39:04;;;;;;;20.07;18.03;;;20.70;74.90;;;;;;5124239;28;20447;-91
2021/06/22 12:41:35;;;;;;;12.30;9.77;;;19.90;75.70;;;;;;5126031;28;20491;-91
2021/06/22 12:44:09;;;;;;;11.90;9.10;;;19.90;72.50;;;;;;5108425;28;20941;-93
2021/06/22 12:46:48;;;;;;;9.90;8.90;;;19.60;72.70;;;;;;5125281;28;20889;-91
2021/06/22 12:49:15;;;;;;;11.40;10.20;;;19.40;78.00;;;;;;5126697;28;20442;-90
2021/06/22 12:51:47;;;;;;;10.30;9.50;;;19.50;76.10;;;;;;5126154;28;20407;-90
2021/06/22 12:54:21;;;;;;;11.40;10.20;;;19.40;76.40;;;;;;5126003;28;20480;-88
2021/06/22 12:57:26;;;;;;;64.00;56.53;;;19.40;69.00;;;;;;5129244;28;20446;-90
2021/06/22 12:59:52;;;;;;;13.73;12.57;;;19.70;68.70;;;;;;5131616;28;20434;-89
2021/06/22 13:02:22;;;;;;;8.83;8.17;;;19.80;70.70;;;;;;5132415;28;20642;-89
2021/06/22 13:04:49;;;;;;;12.60;8.70;;;19.90;70.60;;;;;;5131771;28;20420;-89
2021/06/22 13:07:23;;;;;;;8.40;7.70;;;19.80;70.90;;;;;;5128443;28;20403;-89
2021/06/22 13:13:08;;;;;;;8.77;8.07;;;19.80;68.00;;;;;;5129977;28;20407;-89
2021/06/22 13:16:10;;;;;;;10.87;8.60;;;20.20;70.80;;;;;;5130548;28;20441;-89
2021/06/22 13:19:00;;;;;;;8.20;7.60;;;20.10;65.80;;;;;;5128257;28;20419;-90
2021/06/22 13:21:43;;;;;;;7.83;7.13;;;20.20;66.20;;;;;;5128043;28;20538;-89
2021/06/22 13:24:27;;;;;;;8.43;7.67;;;21.50;66.90;;;;;;5126076;28;20467;-90